Maghera, United Kingdom
Current Conditions -  °F | °C
As of 3:20 AM on Tuesday 23 Dec 2014 (Local Time) from EGAA Reporting Station
Moderate Rain Moderate Rain  
Wind Chill:   Ceiling: 200
Heat Index:   Visibility: 1.5mi
Dew Point:   Wind: 13mph
Humidity: 100%   Direction: 260°W
Pressure: 29.68"   Gusts: NA
Location:  54.84°N, 6.67°W
Report Text: EGAA 230320Z AUTO 26011KT 2500 RA BKN002/// OVC011/// 09/09 Q1005 RERA
Loading
Personal Weather Stations






























Interactive Weather Map New forecast layout! Learn more

10-Day Weather Forecast

Advertisements
Track Severe Weather on mobile